sensor_id;sensor_type;location;lat;lon;timestamp;temperature;humidity
4910;DHT22;2470;49.868;8.660;2023-04-25T00:02:20;10.40;99.90
4910;DHT22;2470;49.868;8.660;2023-04-25T00:04:46;10.40;99.90
4910;DHT22;2470;49.868;8.660;2023-04-25T00:07:14;10.40;99.90
4910;DHT22;2470;49.868;8.660;2023-04-25T00:09:39;10.40;99.90
4910;DHT22;2470;49.868;8.660;2023-04-25T00:12:05;10.40;99.90
4910;DHT22;2470;49.868;8.660;2023-04-25T00:14:30;10.40;99.90
4910;DHT22;2470;49.868;8.660;2023-04-25T00:16:59;10.40;99.90
4910;DHT22;2470;49.868;8.660;2023-04-25T00:19:26;10.40;99.90
4910;DHT22;2470;49.868;8.660;2023-04-25T00:21:54;10.40;99.90
4910;DHT22;2470;49.868;8.660;2023-04-25T00:24:20;10.40;99.90
4910;DHT22;2470;49.868;8.660;2023-04-25T00:26:45;10.30;99.90
4910;DHT22;2470;49.868;8.660;2023-04-25T00:29:11;10.40;99.90
4910;DHT22;2470;49.868;8.660;2023-04-25T00:31:36;10.40;99.90
4910;DHT22;2470;49.868;8.660;2023-04-25T00:34:02;10.40;99.90
4910;DHT22;2470;49.868;8.660;2023-04-25T00:36:27;10.40;99.90
4910;DHT22;2470;49.868;8.660;2023-04-25T00:38:53;10.30;99.90
4910;DHT22;2470;49.868;8.660;2023-04-25T00:41:20;10.30;99.90
4910;DHT22;2470;49.868;8.660;2023-04-25T00:43:46;10.20;99.90
4910;DHT22;2470;49.868;8.660;2023-04-25T00:46:12;10.20;99.90
4910;DHT22;2470;49.868;8.660;2023-04-25T00:48:38;10.20;99.90
4910;DHT22;2470;49.868;8.660;2023-04-25T00:51:03;10.20;99.90
4910;DHT22;2470;49.868;8.660;2023-04-25T00:53:30;10.20;99.90
4910;DHT22;2470;49.868;8.660;2023-04-25T00:55:57;10.20;99.90
4910;DHT22;2470;49.868;8.660;2023-04-25T00:58:23;10.20;99.90
4910;DHT22;2470;49.868;8.660;2023-04-25T01:00:51;10.10;99.90
4910;DHT22;2470;49.868;8.660;2023-04-25T01:03:17;10.20;99.90
4910;DHT22;2470;49.868;8.660;2023-04-25T01:05:45;10.30;99.90
4910;DHT22;2470;49.868;8.660;2023-04-25T01:08:12;10.30;99.90
4910;DHT22;2470;49.868;8.660;2023-04-25T01:10:37;10.20;99.90
4910;DHT22;2470;49.868;8.660;2023-04-25T01:13:03;10.20;99.90
4910;DHT22;2470;49.868;8.660;2023-04-25T01:15:28;10.20;99.90
4910;DHT22;2470;49.868;8.660;2023-04-25T01:17:54;10.30;99.90
4910;DHT22;2470;49.868;8.660;2023-04-25T01:20:24;10.30;99.90
4910;DHT22;2470;49.868;8.660;2023-04-25T01:22:53;10.20;99.90
4910;DHT22;2470;49.868;8.660;2023-04-25T01:25:19;10.10;99.90
4910;DHT22;2470;49.868;8.660;2023-04-25T01:27:45;10.10;99.90
4910;DHT22;2470;49.868;8.660;2023-04-25T01:30:11;10.20;99.90
4910;DHT22;2470;49.868;8.660;2023-04-25T01:32:37;10.30;99.90
4910;DHT22;2470;49.868;8.660;2023-04-25T01:35:07;10.30;99.90
4910;DHT22;2470;49.868;8.660;2023-04-25T01:37:38;10.30;99.90
4910;DHT22;2470;49.868;8.660;2023-04-25T01:40:06;10.40;99.90
4910;DHT22;2470;49.868;8.660;2023-04-25T01:42:33;10.40;99.90
4910;DHT22;2470;49.868;8.660;2023-04-25T01:44:59;10.30;99.90
4910;DHT22;2470;49.868;8.660;2023-04-25T01:47:24;10.20;99.90
4910;DHT22;2470;49.868;8.660;2023-04-25T01:49:50;10.20;99.90
4910;DHT22;2470;49.868;8.660;2023-04-25T01:52:16;10.20;99.90
4910;DHT22;2470;49.868;8.660;2023-04-25T01:54:41;10.20;99.90
4910;DHT22;2470;49.868;8.660;2023-04-25T01:57:10;10.10;99.90
4910;DHT22;2470;49.868;8.660;2023-04-25T01:59:36;10.10;99.90
4910;DHT22;2470;49.868;8.660;2023-04-25T02:02:02;10.00;99.90
4910;DHT22;2470;49.868;8.660;2023-04-25T02:04:29;10.10;99.90
4910;DHT22;2470;49.868;8.660;2023-04-25T02:06:55;10.10;99.90
4910;DHT22;2470;49.868;8.660;2023-04-25T02:09:21;10.10;99.90
4910;DHT22;2470;49.868;8.660;2023-04-25T02:11:46;10.00;99.90
4910;DHT22;2470;49.868;8.660;2023-04-25T02:14:12;9.90;99.90
4910;DHT22;2470;49.868;8.660;2023-04-25T02:16:37;10.00;99.90
4910;DHT22;2470;49.868;8.660;2023-04-25T02:19:03;10.00;99.90
4910;DHT22;2470;49.868;8.660;2023-04-25T02:21:29;10.10;99.90
4910;DHT22;2470;49.868;8.660;2023-04-25T02:23:55;10.10;99.90
4910;DHT22;2470;49.868;8.660;2023-04-25T02:26:21;10.10;99.90
4910;DHT22;2470;49.868;8.660;2023-04-25T02:28:49;10.10;99.90
4910;DHT22;2470;49.868;8.660;2023-04-25T02:31:15;10.10;99.90
4910;DHT22;2470;49.868;8.660;2023-04-25T02:33:40;10.10;99.90
4910;DHT22;2470;49.868;8.660;2023-04-25T02:36:06;10.10;99.90
4910;DHT22;2470;49.868;8.660;2023-04-25T02:38:31;10.10;99.90
4910;DHT22;2470;49.868;8.660;2023-04-25T02:40:57;10.10;99.90
4910;DHT22;2470;49.868;8.660;2023-04-25T02:43:23;10.00;99.90
4910;DHT22;2470;49.868;8.660;2023-04-25T02:45:48;10.10;99.90
4910;DHT22;2470;49.868;8.660;2023-04-25T02:48:13;10.10;99.90
4910;DHT22;2470;49.868;8.660;2023-04-25T02:50:39;9.90;99.90
4910;DHT22;2470;49.868;8.660;2023-04-25T02:53:04;10.00;99.90
4910;DHT22;2470;49.868;8.660;2023-04-25T02:55:30;10.00;99.90
4910;DHT22;2470;49.868;8.660;2023-04-25T02:57:55;10.00;99.90
4910;DHT22;2470;49.868;8.660;2023-04-25T03:00:21;10.00;99.90
4910;DHT22;2470;49.868;8.660;2023-04-25T03:02:48;10.00;99.90
4910;DHT22;2470;49.868;8.660;2023-04-25T03:05:13;10.00;99.90
4910;DHT22;2470;49.868;8.660;2023-04-25T03:07:39;10.00;99.90
4910;DHT22;2470;49.868;8.660;2023-04-25T03:10:06;10.10;99.90
4910;DHT22;2470;49.868;8.660;2023-04-25T03:12:32;10.00;99.90
4910;DHT22;2470;49.868;8.660;2023-04-25T03:14:57;10.00;99.90
4910;DHT22;2470;49.868;8.660;2023-04-25T03:17:23;10.00;99.90
4910;DHT22;2470;49.868;8.660;2023-04-25T03:19:48;10.00;99.90
4910;DHT22;2470;49.868;8.660;2023-04-25T03:22:14;10.00;99.90
4910;DHT22;2470;49.868;8.660;2023-04-25T03:24:40;10.00;99.90
4910;DHT22;2470;49.868;8.660;2023-04-25T03:27:05;10.00;99.90
4910;DHT22;2470;49.868;8.660;2023-04-25T03:29:31;10.00;99.90
4910;DHT22;2470;49.868;8.660;2023-04-25T03:31:56;10.00;99.90
4910;DHT22;2470;49.868;8.660;2023-04-25T03:34:22;10.00;99.90
4910;DHT22;2470;49.868;8.660;2023-04-25T03:36:47;9.90;99.90
4910;DHT22;2470;49.868;8.660;2023-04-25T03:39:13;9.90;99.90
4910;DHT22;2470;49.868;8.660;2023-04-25T03:41:38;9.90;99.90
4910;DHT22;2470;49.868;8.660;2023-04-25T03:44:04;9.80;99.90
4910;DHT22;2470;49.868;8.660;2023-04-25T03:46:29;9.70;99.90
4910;DHT22;2470;49.868;8.660;2023-04-25T03:48:55;9.60;99.90
4910;DHT22;2470;49.868;8.660;2023-04-25T03:51:20;9.50;99.90
4910;DHT22;2470;49.868;8.660;2023-04-25T03:53:47;9.60;99.90
4910;DHT22;2470;49.868;8.660;2023-04-25T03:56:12;9.70;99.90
4910;DHT22;2470;49.868;8.660;2023-04-25T03:58:38;9.70;99.90
4910;DHT22;2470;49.868;8.660;2023-04-25T04:01:03;9.70;99.90
4910;DHT22;2470;49.868;8.660;2023-04-25T04:03:35;9.70;99.90
4910;DHT22;2470;49.868;8.660;2023-04-25T04:06:02;9.70;99.90
4910;DHT22;2470;49.868;8.660;2023-04-25T04:08:29;9.70;99.90
4910;DHT22;2470;49.868;8.660;2023-04-25T04:10:55;9.80;99.90
4910;DHT22;2470;49.868;8.660;2023-04-25T04:13:21;9.80;99.90
4910;DHT22;2470;49.868;8.660;2023-04-25T04:15:46;9.80;99.90
4910;DHT22;2470;49.868;8.660;2023-04-25T04:18:12;9.80;99.90
4910;DHT22;2470;49.868;8.660;2023-04-25T04:20:37;9.90;99.90
4910;DHT22;2470;49.868;8.660;2023-04-25T04:23:03;9.90;99.90
4910;DHT22;2470;49.868;8.660;2023-04-25T04:25:28;9.90;99.90
4910;DHT22;2470;49.868;8.660;2023-04-25T04:27:55;9.90;99.90
4910;DHT22;2470;49.868;8.660;2023-04-25T04:30:24;10.00;99.90
4910;DHT22;2470;49.868;8.660;2023-04-25T04:32:51;10.00;99.90
4910;DHT22;2470;49.868;8.660;2023-04-25T04:35:17;10.00;99.90
4910;DHT22;2470;49.868;8.660;2023-04-25T04:37:42;10.10;99.90
4910;DHT22;2470;49.868;8.660;2023-04-25T04:40:09;10.10;99.90
4910;DHT22;2470;49.868;8.660;2023-04-25T04:42:35;10.10;99.90
4910;DHT22;2470;49.868;8.660;2023-04-25T04:45:01;10.20;99.90
4910;DHT22;2470;49.868;8.660;2023-04-25T04:47:28;10.20;99.90
4910;DHT22;2470;49.868;8.660;2023-04-25T04:49:56;10.20;99.90
4910;DHT22;2470;49.868;8.660;2023-04-25T04:52:21;10.20;99.90
4910;DHT22;2470;49.868;8.660;2023-04-25T04:54:47;10.20;99.90
4910;DHT22;2470;49.868;8.660;2023-04-25T04:57:12;10.20;99.90
4910;DHT22;2470;49.868;8.660;2023-04-25T04:59:38;10.20;99.90
4910;DHT22;2470;49.868;8.660;2023-04-25T05:02:03;10.20;99.90
4910;DHT22;2470;49.868;8.660;2023-04-25T05:04:29;10.10;99.90
4910;DHT22;2470;49.868;8.660;2023-04-25T05:06:54;10.10;99.90
4910;DHT22;2470;49.868;8.660;2023-04-25T05:09:20;10.10;99.90
4910;DHT22;2470;49.868;8.660;2023-04-25T05:11:45;10.20;99.90
4910;DHT22;2470;49.868;8.660;2023-04-25T05:14:11;10.20;99.90
4910;DHT22;2470;49.868;8.660;2023-04-25T05:16:36;10.20;99.90
4910;DHT22;2470;49.868;8.660;2023-04-25T05:19:02;10.20;99.90
4910;DHT22;2470;49.868;8.660;2023-04-25T05:21:27;10.10;99.90
4910;DHT22;2470;49.868;8.660;2023-04-25T05:23:53;10.10;99.90
4910;DHT22;2470;49.868;8.660;2023-04-25T05:26:19;10.10;99.90
4910;DHT22;2470;49.868;8.660;2023-04-25T05:28:46;10.00;99.90
4910;DHT22;2470;49.868;8.660;2023-04-25T05:31:11;10.00;99.90
4910;DHT22;2470;49.868;8.660;2023-04-25T05:33:37;10.10;99.90
4910;DHT22;2470;49.868;8.660;2023-04-25T05:36:03;10.00;99.90
4910;DHT22;2470;49.868;8.660;2023-04-25T05:38:28;10.00;99.90
4910;DHT22;2470;49.868;8.660;2023-04-25T05:40:55;10.00;99.90
4910;DHT22;2470;49.868;8.660;2023-04-25T05:43:20;9.90;99.90
4910;DHT22;2470;49.868;8.660;2023-04-25T05:45:46;9.90;99.90
4910;DHT22;2470;49.868;8.660;2023-04-25T05:48:12;9.90;99.90
4910;DHT22;2470;49.868;8.660;2023-04-25T05:50:37;9.90;99.90
4910;DHT22;2470;49.868;8.660;2023-04-25T05:53:03;9.90;99.90
4910;DHT22;2470;49.868;8.660;2023-04-25T05:55:28;9.90;99.90
4910;DHT22;2470;49.868;8.660;2023-04-25T05:57:54;9.90;99.90
4910;DHT22;2470;49.868;8.660;2023-04-25T06:00:20;10.10;99.90
4910;DHT22;2470;49.868;8.660;2023-04-25T06:02:47;10.20;99.90
4910;DHT22;2470;49.868;8.660;2023-04-25T06:05:13;10.40;99.90
4910;DHT22;2470;49.868;8.660;2023-04-25T06:07:38;10.50;99.90
4910;DHT22;2470;49.868;8.660;2023-04-25T06:10:04;10.40;99.90
4910;DHT22;2470;49.868;8.660;2023-04-25T06:12:32;10.30;99.90
4910;DHT22;2470;49.868;8.660;2023-04-25T06:14:59;10.30;99.90
4910;DHT22;2470;49.868;8.660;2023-04-25T06:17:24;10.30;99.90
4910;DHT22;2470;49.868;8.660;2023-04-25T06:19:50;10.30;99.90
4910;DHT22;2470;49.868;8.660;2023-04-25T06:22:15;10.40;99.90
4910;DHT22;2470;49.868;8.660;2023-04-25T06:24:41;10.50;99.90
4910;DHT22;2470;49.868;8.660;2023-04-25T06:27:06;10.50;99.90
4910;DHT22;2470;49.868;8.660;2023-04-25T06:29:32;10.60;99.90
4910;DHT22;2470;49.868;8.660;2023-04-25T06:31:57;10.50;99.90
4910;DHT22;2470;49.868;8.660;2023-04-25T06:34:23;10.60;99.90
4910;DHT22;2470;49.868;8.660;2023-04-25T06:36:48;10.60;99.90
4910;DHT22;2470;49.868;8.660;2023-04-25T06:39:14;10.70;99.90
4910;DHT22;2470;49.868;8.660;2023-04-25T06:41:39;10.80;99.90
4910;DHT22;2470;49.868;8.660;2023-04-25T06:44:05;10.80;99.90
4910;DHT22;2470;49.868;8.660;2023-04-25T06:46:31;10.90;99.90
4910;DHT22;2470;49.868;8.660;2023-04-25T06:48:56;10.90;99.90
4910;DHT22;2470;49.868;8.660;2023-04-25T06:51:22;11.00;99.90
4910;DHT22;2470;49.868;8.660;2023-04-25T06:53:49;11.00;99.90
4910;DHT22;2470;49.868;8.660;2023-04-25T06:56:15;11.00;99.90
4910;DHT22;2470;49.868;8.660;2023-04-25T06:58:41;10.90;99.90
4910;DHT22;2470;49.868;8.660;2023-04-25T07:01:06;10.80;99.90
4910;DHT22;2470;49.868;8.660;2023-04-25T07:03:32;10.70;99.90
4910;DHT22;2470;49.868;8.660;2023-04-25T07:05:57;10.80;99.90
4910;DHT22;2470;49.868;8.660;2023-04-25T07:08:23;10.90;99.90
4910;DHT22;2470;49.868;8.660;2023-04-25T07:10:48;11.10;99.90
4910;DHT22;2470;49.868;8.660;2023-04-25T07:13:14;11.30;99.90
4910;DHT22;2470;49.868;8.660;2023-04-25T07:15:39;11.50;99.90
4910;DHT22;2470;49.868;8.660;2023-04-25T07:18:05;11.50;99.90
4910;DHT22;2470;49.868;8.660;2023-04-25T07:20:30;11.60;99.90
4910;DHT22;2470;49.868;8.660;2023-04-25T07:22:56;11.60;99.90
4910;DHT22;2470;49.868;8.660;2023-04-25T07:25:22;11.60;99.90
4910;DHT22;2470;49.868;8.660;2023-04-25T07:27:48;11.70;99.90
4910;DHT22;2470;49.868;8.660;2023-04-25T07:30:13;11.70;99.90
4910;DHT22;2470;49.868;8.660;2023-04-25T07:32:39;11.60;99.90
4910;DHT22;2470;49.868;8.660;2023-04-25T07:35:06;11.60;99.90
4910;DHT22;2470;49.868;8.660;2023-04-25T07:37:35;11.50;99.90
4910;DHT22;2470;49.868;8.660;2023-04-25T07:40:04;11.40;99.90
4910;DHT22;2470;49.868;8.660;2023-04-25T07:42:30;11.30;99.90
4910;DHT22;2470;49.868;8.660;2023-04-25T07:44:56;11.30;99.90
4910;DHT22;2470;49.868;8.660;2023-04-25T07:47:21;11.30;99.90
4910;DHT22;2470;49.868;8.660;2023-04-25T07:49:47;11.40;99.90
4910;DHT22;2470;49.868;8.660;2023-04-25T07:52:13;11.40;99.90
4910;DHT22;2470;49.868;8.660;2023-04-25T07:54:39;11.50;99.90
4910;DHT22;2470;49.868;8.660;2023-04-25T07:57:04;11.50;99.90
4910;DHT22;2470;49.868;8.660;2023-04-25T07:59:31;11.40;99.90
4910;DHT22;2470;49.868;8.660;2023-04-25T08:01:57;11.40;99.90
4910;DHT22;2470;49.868;8.660;2023-04-25T08:04:23;11.40;99.90
4910;DHT22;2470;49.868;8.660;2023-04-25T08:06:49;11.30;99.90
4910;DHT22;2470;49.868;8.660;2023-04-25T08:09:15;11.40;99.90
4910;DHT22;2470;49.868;8.660;2023-04-25T08:11:41;11.40;99.90
4910;DHT22;2470;49.868;8.660;2023-04-25T08:14:07;11.30;99.90
4910;DHT22;2470;49.868;8.660;2023-04-25T08:16:33;11.40;99.90
4910;DHT22;2470;49.868;8.660;2023-04-25T08:18:59;11.50;99.90
4910;DHT22;2470;49.868;8.660;2023-04-25T08:21:25;11.50;99.90
4910;DHT22;2470;49.868;8.660;2023-04-25T08:23:52;11.70;99.90
4910;DHT22;2470;49.868;8.660;2023-04-25T08:26:17;11.90;99.90
4910;DHT22;2470;49.868;8.660;2023-04-25T08:28:43;12.00;99.90
4910;DHT22;2470;49.868;8.660;2023-04-25T08:31:08;11.80;99.90
4910;DHT22;2470;49.868;8.660;2023-04-25T08:33:34;11.70;99.90
4910;DHT22;2470;49.868;8.660;2023-04-25T08:35:59;11.80;99.90
4910;DHT22;2470;49.868;8.660;2023-04-25T08:38:25;11.80;99.90
4910;DHT22;2470;49.868;8.660;2023-04-25T08:40:51;11.80;99.90
4910;DHT22;2470;49.868;8.660;2023-04-25T08:43:18;11.80;99.90
4910;DHT22;2470;49.868;8.660;2023-04-25T08:45:44;11.80;99.90
4910;DHT22;2470;49.868;8.660;2023-04-25T08:48:14;11.80;99.90
4910;DHT22;2470;49.868;8.660;2023-04-25T08:53:12;12.40;99.90
4910;DHT22;2470;49.868;8.660;2023-04-25T08:55:43;12.40;99.90
4910;DHT22;2470;49.868;8.660;2023-04-25T08:58:10;12.40;99.90
4910;DHT22;2470;49.868;8.660;2023-04-25T09:00:37;12.50;99.70
4910;DHT22;2470;49.868;8.660;2023-04-25T09:03:03;12.50;99.60
4910;DHT22;2470;49.868;8.660;2023-04-25T09:05:28;12.50;99.50
4910;DHT22;2470;49.868;8.660;2023-04-25T09:07:54;12.50;99.40
4910;DHT22;2470;49.868;8.660;2023-04-25T09:10:21;12.40;99.30
4910;DHT22;2470;49.868;8.660;2023-04-25T09:13:11;12.50;99.70
4910;DHT22;2470;49.868;8.660;2023-04-25T09:15:48;12.80;98.60
4910;DHT22;2470;49.868;8.660;2023-04-25T09:18:25;12.90;98.70
4910;DHT22;2470;49.868;8.660;2023-04-25T09:20:56;13.00;98.50
4910;DHT22;2470;49.868;8.660;2023-04-25T09:23:23;13.10;99.10
4910;DHT22;2470;49.868;8.660;2023-04-25T09:25:52;13.00;98.40
4910;DHT22;2470;49.868;8.660;2023-04-25T09:28:24;12.80;96.40
4910;DHT22;2470;49.868;8.660;2023-04-25T09:30:56;12.60;96.90
4910;DHT22;2470;49.868;8.660;2023-04-25T09:33:29;12.50;96.70
4910;DHT22;2470;49.868;8.660;2023-04-25T09:36:02;12.70;96.90
4910;DHT22;2470;49.868;8.660;2023-04-25T09:38:30;12.90;96.70
4910;DHT22;2470;49.868;8.660;2023-04-25T09:40:56;13.20;97.00
4910;DHT22;2470;49.868;8.660;2023-04-25T09:43:24;13.30;96.00
4910;DHT22;2470;49.868;8.660;2023-04-25T09:45:54;13.30;96.40
4910;DHT22;2470;49.868;8.660;2023-04-25T09:48:24;13.30;96.10
4910;DHT22;2470;49.868;8.660;2023-04-25T09:51:12;13.20;95.50
4910;DHT22;2470;49.868;8.660;2023-04-25T09:53:45;13.00;95.90
4910;DHT22;2470;49.868;8.660;2023-04-25T09:56:17;12.70;95.30
4910;DHT22;2470;49.868;8.660;2023-04-25T09:58:47;12.60;95.80
4910;DHT22;2470;49.868;8.660;2023-04-25T10:01:12;12.40;96.60
4910;DHT22;2470;49.868;8.660;2023-04-25T10:03:39;12.40;97.20
4910;DHT22;2470;49.868;8.660;2023-04-25T10:06:09;12.40;96.80
4910;DHT22;2470;49.868;8.660;2023-04-25T10:08:37;12.40;97.10
4910;DHT22;2470;49.868;8.660;2023-04-25T10:11:04;12.40;96.70
4910;DHT22;2470;49.868;8.660;2023-04-25T10:13:31;12.40;96.90
4910;DHT22;2470;49.868;8.660;2023-04-25T10:16:04;12.30;96.40
4910;DHT22;2470;49.868;8.660;2023-04-25T10:18:31;12.20;96.30
4910;DHT22;2470;49.868;8.660;2023-04-25T10:20:59;12.10;96.70
4910;DHT22;2470;49.868;8.660;2023-04-25T10:23:25;12.20;97.10
4910;DHT22;2470;49.868;8.660;2023-04-25T10:25:52;12.20;96.60
4910;DHT22;2470;49.868;8.660;2023-04-25T10:28:18;12.20;96.40
4910;DHT22;2470;49.868;8.660;2023-04-25T10:31:04;12.20;95.70
4910;DHT22;2470;49.868;8.660;2023-04-25T10:33:37;12.40;96.20
4910;DHT22;2470;49.868;8.660;2023-04-25T10:36:20;12.50;95.30
4910;DHT22;2470;49.868;8.660;2023-04-25T10:38:48;12.50;95.70
4910;DHT22;2470;49.868;8.660;2023-04-25T10:41:18;12.60;95.90
4910;DHT22;2470;49.868;8.660;2023-04-25T10:43:45;12.70;95.10
4910;DHT22;2470;49.868;8.660;2023-04-25T10:46:27;12.70;94.90
4910;DHT22;2470;49.868;8.660;2023-04-25T10:48:57;12.80;95.30
4910;DHT22;2470;49.868;8.660;2023-04-25T10:51:25;12.90;95.70
4910;DHT22;2470;49.868;8.660;2023-04-25T10:56:31;13.10;95.20
4910;DHT22;2470;49.868;8.660;2023-04-25T10:59:05;13.10;95.50
4910;DHT22;2470;49.868;8.660;2023-04-25T11:01:40;13.10;94.80
4910;DHT22;2470;49.868;8.660;2023-04-25T11:04:06;13.00;94.50
4910;DHT22;2470;49.868;8.660;2023-04-25T11:06:46;12.90;94.90
4910;DHT22;2470;49.868;8.660;2023-04-25T11:09:17;12.80;94.60
4910;DHT22;2470;49.868;8.660;2023-04-25T11:11:42;12.70;94.50
4910;DHT22;2470;49.868;8.660;2023-04-25T11:14:08;12.70;94.90
4910;DHT22;2470;49.868;8.660;2023-04-25T11:16:34;12.80;94.80
4910;DHT22;2470;49.868;8.660;2023-04-25T11:19:01;13.00;94.60
4910;DHT22;2470;49.868;8.660;2023-04-25T11:21:27;13.10;94.10
4910;DHT22;2470;49.868;8.660;2023-04-25T11:23:54;13.20;94.00
4910;DHT22;2470;49.868;8.660;2023-04-25T11:26:19;13.40;93.80
4910;DHT22;2470;49.868;8.660;2023-04-25T11:28:45;13.50;93.60
4910;DHT22;2470;49.868;8.660;2023-04-25T11:31:12;13.70;93.20
4910;DHT22;2470;49.868;8.660;2023-04-25T11:33:37;13.80;93.00
4910;DHT22;2470;49.868;8.660;2023-04-25T11:36:03;13.90;93.50
4910;DHT22;2470;49.868;8.660;2023-04-25T11:38:29;13.80;92.70
4910;DHT22;2470;49.868;8.660;2023-04-25T11:40:55;13.80;92.80
4910;DHT22;2470;49.868;8.660;2023-04-25T11:43:21;13.60;93.00
4910;DHT22;2470;49.868;8.660;2023-04-25T11:45:49;13.50;92.80
4910;DHT22;2470;49.868;8.660;2023-04-25T11:48:14;13.30;92.80
4910;DHT22;2470;49.868;8.660;2023-04-25T11:50:40;13.20;93.00
4910;DHT22;2470;49.868;8.660;2023-04-25T11:53:06;13.10;92.90
4910;DHT22;2470;49.868;8.660;2023-04-25T11:55:31;13.00;92.80
4910;DHT22;2470;49.868;8.660;2023-04-25T11:57:59;13.00;93.60
4910;DHT22;2470;49.868;8.660;2023-04-25T12:00:26;13.10;93.50
4910;DHT22;2470;49.868;8.660;2023-04-25T12:02:56;13.00;93.10
4910;DHT22;2470;49.868;8.660;2023-04-25T12:05:29;13.10;93.40
4910;DHT22;2470;49.868;8.660;2023-04-25T12:07:56;13.10;92.60
4910;DHT22;2470;49.868;8.660;2023-04-25T12:10:22;13.00;92.40
4910;DHT22;2470;49.868;8.660;2023-04-25T12:12:49;12.80;92.80
4910;DHT22;2470;49.868;8.660;2023-04-25T12:15:16;12.80;92.70
4910;DHT22;2470;49.868;8.660;2023-04-25T12:17:46;12.80;92.70
4910;DHT22;2470;49.868;8.660;2023-04-25T12:20:17;12.80;93.10
4910;DHT22;2470;49.868;8.660;2023-04-25T12:22:44;12.90;92.80
4910;DHT22;2470;49.868;8.660;2023-04-25T12:25:12;12.90;92.70
4910;DHT22;2470;49.868;8.660;2023-04-25T12:27:38;13.00;93.00
4910;DHT22;2470;49.868;8.660;2023-04-25T12:30:07;13.10;92.60
4910;DHT22;2470;49.868;8.660;2023-04-25T12:32:33;13.30;92.20
4910;DHT22;2470;49.868;8.660;2023-04-25T12:34:59;13.30;91.60
4910;DHT22;2470;49.868;8.660;2023-04-25T12:37:24;13.20;91.60
4910;DHT22;2470;49.868;8.660;2023-04-25T12:39:50;13.10;92.30
4910;DHT22;2470;49.868;8.660;2023-04-25T12:42:16;13.10;92.30
4910;DHT22;2470;49.868;8.660;2023-04-25T12:44:41;13.10;91.60
4910;DHT22;2470;49.868;8.660;2023-04-25T12:47:07;13.10;91.50
4910;DHT22;2470;49.868;8.660;2023-04-25T12:49:32;13.10;92.10
4910;DHT22;2470;49.868;8.660;2023-04-25T12:51:58;13.30;91.80
4910;DHT22;2470;49.868;8.660;2023-04-25T12:54:23;13.60;91.40
4910;DHT22;2470;49.868;8.660;2023-04-25T12:56:50;13.90;90.70
4910;DHT22;2470;49.868;8.660;2023-04-25T12:59:16;13.90;90.30
4910;DHT22;2470;49.868;8.660;2023-04-25T13:01:42;13.80;90.50
4910;DHT22;2470;49.868;8.660;2023-04-25T13:04:08;14.40;90.10
4910;DHT22;2470;49.868;8.660;2023-04-25T13:06:33;14.40;87.80
4910;DHT22;2470;49.868;8.660;2023-04-25T13:08:59;14.30;88.90
4910;DHT22;2470;49.868;8.660;2023-04-25T13:11:24;14.80;88.40
4910;DHT22;2470;49.868;8.660;2023-04-25T13:13:50;15.40;86.20
4910;DHT22;2470;49.868;8.660;2023-04-25T13:16:15;16.10;83.10
4910;DHT22;2470;49.868;8.660;2023-04-25T13:18:41;16.40;80.70
4910;DHT22;2470;49.868;8.660;2023-04-25T13:21:07;16.20;80.30
4910;DHT22;2470;49.868;8.660;2023-04-25T13:23:34;15.80;77.20
4910;DHT22;2470;49.868;8.660;2023-04-25T13:25:59;15.30;76.90
4910;DHT22;2470;49.868;8.660;2023-04-25T13:28:27;14.90;80.60
4910;DHT22;2470;49.868;8.660;2023-04-25T13:30:53;14.70;79.00
4910;DHT22;2470;49.868;8.660;2023-04-25T13:33:19;14.90;79.70
4910;DHT22;2470;49.868;8.660;2023-04-25T13:35:46;15.40;79.80
4910;DHT22;2470;49.868;8.660;2023-04-25T13:38:19;15.40;79.80
4910;DHT22;2470;49.868;8.660;2023-04-25T13:40:44;15.30;79.90
4910;DHT22;2470;49.868;8.660;2023-04-25T13:43:10;15.00;79.20
4910;DHT22;2470;49.868;8.660;2023-04-25T13:45:36;14.70;78.30
4910;DHT22;2470;49.868;8.660;2023-04-25T13:48:02;14.50;79.50
4910;DHT22;2470;49.868;8.660;2023-04-25T13:50:27;14.30;80.20
4910;DHT22;2470;49.868;8.660;2023-04-25T13:52:53;14.10;76.00
4910;DHT22;2470;49.868;8.660;2023-04-25T13:55:18;13.80;76.10
4910;DHT22;2470;49.868;8.660;2023-04-25T13:57:44;13.60;77.00
4910;DHT22;2470;49.868;8.660;2023-04-25T14:00:11;13.50;77.40
4910;DHT22;2470;49.868;8.660;2023-04-25T14:02:37;13.40;77.80
4910;DHT22;2470;49.868;8.660;2023-04-25T14:05:04;13.30;78.00
4910;DHT22;2470;49.868;8.660;2023-04-25T14:07:29;13.30;78.10
4910;DHT22;2470;49.868;8.660;2023-04-25T14:09:55;13.40;78.10
4910;DHT22;2470;49.868;8.660;2023-04-25T14:12:22;13.80;79.40
4910;DHT22;2470;49.868;8.660;2023-04-25T14:14:48;14.30;79.30
4910;DHT22;2470;49.868;8.660;2023-04-25T14:17:13;14.30;78.90
4910;DHT22;2470;49.868;8.660;2023-04-25T14:19:39;14.30;75.60
4910;DHT22;2470;49.868;8.660;2023-04-25T14:22:08;15.00;75.00
4910;DHT22;2470;49.868;8.660;2023-04-25T14:24:34;15.60;74.10
4910;DHT22;2470;49.868;8.660;2023-04-25T14:27:00;16.60;72.80
4910;DHT22;2470;49.868;8.660;2023-04-25T14:29:26;17.50;69.40
4910;DHT22;2470;49.868;8.660;2023-04-25T14:31:51;17.40;70.20
4910;DHT22;2470;49.868;8.660;2023-04-25T14:34:18;16.70;68.30
4910;DHT22;2470;49.868;8.660;2023-04-25T14:36:44;16.10;70.50
4910;DHT22;2470;49.868;8.660;2023-04-25T14:39:09;15.40;70.00
4910;DHT22;2470;49.868;8.660;2023-04-25T14:41:35;14.90;71.60
4910;DHT22;2470;49.868;8.660;2023-04-25T14:44:00;14.70;73.70
4910;DHT22;2470;49.868;8.660;2023-04-25T14:46:26;14.50;73.40
4910;DHT22;2470;49.868;8.660;2023-04-25T14:48:52;14.30;74.20
4910;DHT22;2470;49.868;8.660;2023-04-25T14:51:17;14.10;74.20
4910;DHT22;2470;49.868;8.660;2023-04-25T14:53:43;14.00;73.80
4910;DHT22;2470;49.868;8.660;2023-04-25T14:56:09;14.00;73.90
4910;DHT22;2470;49.868;8.660;2023-04-25T14:58:34;14.40;74.00
4910;DHT22;2470;49.868;8.660;2023-04-25T15:01:00;14.60;72.50
4910;DHT22;2470;49.868;8.660;2023-04-25T15:03:26;14.60;74.10
4910;DHT22;2470;49.868;8.660;2023-04-25T15:05:52;14.50;75.60
4910;DHT22;2470;49.868;8.660;2023-04-25T15:08:19;14.40;73.10
4910;DHT22;2470;49.868;8.660;2023-04-25T15:10:46;14.30;73.70
4910;DHT22;2470;49.868;8.660;2023-04-25T15:13:11;14.10;73.30
4910;DHT22;2470;49.868;8.660;2023-04-25T15:15:40;14.00;75.70
4910;DHT22;2470;49.868;8.660;2023-04-25T15:18:06;13.90;74.20
4910;DHT22;2470;49.868;8.660;2023-04-25T15:20:31;13.90;73.00
4910;DHT22;2470;49.868;8.660;2023-04-25T15:22:57;13.90;74.10
4910;DHT22;2470;49.868;8.660;2023-04-25T15:25:23;13.90;73.30
4910;DHT22;2470;49.868;8.660;2023-04-25T15:27:48;14.00;71.80
4910;DHT22;2470;49.868;8.660;2023-04-25T15:30:17;14.30;71.20
4910;DHT22;2470;49.868;8.660;2023-04-25T15:32:44;14.50;71.40
4910;DHT22;2470;49.868;8.660;2023-04-25T15:35:10;14.60;70.60
4910;DHT22;2470;49.868;8.660;2023-04-25T15:37:36;14.30;70.30
4910;DHT22;2470;49.868;8.660;2023-04-25T15:40:15;14.20;71.90
4910;DHT22;2470;49.868;8.660;2023-04-25T15:42:47;14.10;71.70
4910;DHT22;2470;49.868;8.660;2023-04-25T15:45:14;14.00;70.90
4910;DHT22;2470;49.868;8.660;2023-04-25T15:47:40;13.70;69.80
4910;DHT22;2470;49.868;8.660;2023-04-25T15:50:07;13.50;70.50
4910;DHT22;2470;49.868;8.660;2023-04-25T15:52:34;13.40;70.20
4910;DHT22;2470;49.868;8.660;2023-04-25T15:55:07;13.20;71.70
4910;DHT22;2470;49.868;8.660;2023-04-25T15:57:36;13.10;73.90
4910;DHT22;2470;49.868;8.660;2023-04-25T16:00:05;13.10;73.70
4910;DHT22;2470;49.868;8.660;2023-04-25T16:02:43;13.00;73.00
4910;DHT22;2470;49.868;8.660;2023-04-25T16:05:09;13.00;73.40